sensor_id;sensor_type;location;lat;lon;timestamp;P1;durP1;ratioP1;P2;durP2;ratioP2
17235;SDS011;8734;59.272;17.780;2023-08-24T00:00:56;5.60;;;3.13;;
17235;SDS011;8734;59.272;17.780;2023-08-24T00:03:24;6.50;;;3.63;;
17235;SDS011;8734;59.272;17.780;2023-08-24T00:05:52;17.03;;;3.80;;
17235;SDS011;8734;59.272;17.780;2023-08-24T00:08:21;4.53;;;2.97;;
17235;SDS011;8734;59.272;17.780;2023-08-24T00:10:49;7.63;;;3.07;;
17235;SDS011;8734;59.272;17.780;2023-08-24T00:13:17;5.87;;;3.63;;
17235;SDS011;8734;59.272;17.780;2023-08-24T00:15:47;7.13;;;3.40;;
17235;SDS011;8734;59.272;17.780;2023-08-24T00:18:15;6.40;;;3.60;;
17235;SDS011;8734;59.272;17.780;2023-08-24T00:20:45;12.43;;;3.70;;
17235;SDS011;8734;59.272;17.780;2023-08-24T00:23:14;12.77;;;3.43;;
17235;SDS011;8734;59.272;17.780;2023-08-24T00:25:42;16.40;;;3.97;;
17235;SDS011;8734;59.272;17.780;2023-08-24T00:28:11;4.47;;;3.27;;
17235;SDS011;8734;59.272;17.780;2023-08-24T00:30:39;5.67;;;2.87;;
17235;SDS011;8734;59.272;17.780;2023-08-24T00:33:08;7.60;;;3.40;;
17235;SDS011;8734;59.272;17.780;2023-08-24T00:35:37;6.77;;;2.90;;
17235;SDS011;8734;59.272;17.780;2023-08-24T00:38:05;5.90;;;3.50;;
17235;SDS011;8734;59.272;17.780;2023-08-24T00:40:33;7.50;;;3.17;;
17235;SDS011;8734;59.272;17.780;2023-08-24T00:43:02;9.10;;;2.87;;
17235;SDS011;8734;59.272;17.780;2023-08-24T00:45:30;6.80;;;2.90;;
17235;SDS011;8734;59.272;17.780;2023-08-24T00:48:00;8.93;;;2.90;;
17235;SDS011;8734;59.272;17.780;2023-08-24T00:50:31;6.70;;;3.20;;
17235;SDS011;8734;59.272;17.780;2023-08-24T00:53:00;6.57;;;2.63;;
17235;SDS011;8734;59.272;17.780;2023-08-24T00:55:28;5.40;;;3.03;;
17235;SDS011;8734;59.272;17.780;2023-08-24T00:57:56;10.40;;;3.40;;
17235;SDS011;8734;59.272;17.780;2023-08-24T01:00:26;7.23;;;3.20;;
17235;SDS011;8734;59.272;17.780;2023-08-24T01:02:54;10.27;;;3.43;;
17235;SDS011;8734;59.272;17.780;2023-08-24T01:05:23;7.40;;;3.40;;
17235;SDS011;8734;59.272;17.780;2023-08-24T01:07:52;5.17;;;3.10;;
17235;SDS011;8734;59.272;17.780;2023-08-24T01:10:21;10.60;;;3.63;;
17235;SDS011;8734;59.272;17.780;2023-08-24T01:12:56;4.53;;;2.83;;
17235;SDS011;8734;59.272;17.780;2023-08-24T01:15:32;4.93;;;3.00;;
17235;SDS011;8734;59.272;17.780;2023-08-24T01:18:06;8.00;;;2.93;;
17235;SDS011;8734;59.272;17.780;2023-08-24T01:20:40;11.17;;;3.30;;
17235;SDS011;8734;59.272;17.780;2023-08-24T01:23:18;6.07;;;3.13;;
17235;SDS011;8734;59.272;17.780;2023-08-24T01:26:02;11.47;;;3.30;;
17235;SDS011;8734;59.272;17.780;2023-08-24T01:28:36;4.47;;;3.13;;
17235;SDS011;8734;59.272;17.780;2023-08-24T01:31:05;10.17;;;3.53;;
17235;SDS011;8734;59.272;17.780;2023-08-24T01:33:34;5.93;;;3.23;;
17235;SDS011;8734;59.272;17.780;2023-08-24T01:36:02;10.20;;;3.23;;
17235;SDS011;8734;59.272;17.780;2023-08-24T01:38:31;7.43;;;3.03;;
17235;SDS011;8734;59.272;17.780;2023-08-24T01:41:04;7.10;;;2.80;;
17235;SDS011;8734;59.272;17.780;2023-08-24T01:43:40;8.07;;;3.17;;
17235;SDS011;8734;59.272;17.780;2023-08-24T01:46:10;12.20;;;3.47;;
17235;SDS011;8734;59.272;17.780;2023-08-24T01:48:42;5.70;;;3.60;;
17235;SDS011;8734;59.272;17.780;2023-08-24T01:51:11;6.97;;;3.23;;
17235;SDS011;8734;59.272;17.780;2023-08-24T01:53:41;6.43;;;3.23;;
17235;SDS011;8734;59.272;17.780;2023-08-24T01:56:12;8.00;;;3.10;;
17235;SDS011;8734;59.272;17.780;2023-08-24T01:58:41;11.03;;;3.40;;
17235;SDS011;8734;59.272;17.780;2023-08-24T02:01:09;8.10;;;3.33;;
17235;SDS011;8734;59.272;17.780;2023-08-24T02:03:39;5.90;;;3.10;;
17235;SDS011;8734;59.272;17.780;2023-08-24T02:06:07;7.00;;;3.40;;
17235;SDS011;8734;59.272;17.780;2023-08-24T02:08:36;7.23;;;3.33;;
17235;SDS011;8734;59.272;17.780;2023-08-24T02:11:04;7.20;;;3.63;;
17235;SDS011;8734;59.272;17.780;2023-08-24T02:13:35;6.70;;;3.10;;
17235;SDS011;8734;59.272;17.780;2023-08-24T02:16:03;5.00;;;3.03;;
17235;SDS011;8734;59.272;17.780;2023-08-24T02:18:32;8.30;;;3.70;;
17235;SDS011;8734;59.272;17.780;2023-08-24T02:21:06;8.07;;;3.40;;
17235;SDS011;8734;59.272;17.780;2023-08-24T02:23:35;13.73;;;3.77;;
17235;SDS011;8734;59.272;17.780;2023-08-24T02:26:03;10.87;;;3.60;;
17235;SDS011;8734;59.272;17.780;2023-08-24T02:28:32;9.33;;;3.30;;
17235;SDS011;8734;59.272;17.780;2023-08-24T02:31:02;7.40;;;3.20;;
17235;SDS011;8734;59.272;17.780;2023-08-24T02:33:31;5.20;;;2.97;;
17235;SDS011;8734;59.272;17.780;2023-08-24T02:36:00;9.00;;;3.33;;
17235;SDS011;8734;59.272;17.780;2023-08-24T02:38:28;9.37;;;3.33;;
17235;SDS011;8734;59.272;17.780;2023-08-24T02:41:00;5.67;;;3.10;;
17235;SDS011;8734;59.272;17.780;2023-08-24T02:43:30;7.30;;;3.20;;
17235;SDS011;8734;59.272;17.780;2023-08-24T02:46:03;3.80;;;2.90;;
17235;SDS011;8734;59.272;17.780;2023-08-24T02:48:34;8.83;;;2.90;;
17235;SDS011;8734;59.272;17.780;2023-08-24T02:51:03;5.27;;;2.57;;
17235;SDS011;8734;59.272;17.780;2023-08-24T02:53:32;6.70;;;3.00;;
17235;SDS011;8734;59.272;17.780;2023-08-24T02:56:01;10.40;;;3.10;;
17235;SDS011;8734;59.272;17.780;2023-08-24T02:58:29;10.07;;;2.80;;
17235;SDS011;8734;59.272;17.780;2023-08-24T03:00:58;7.93;;;3.30;;
17235;SDS011;8734;59.272;17.780;2023-08-24T03:03:28;10.67;;;3.30;;
17235;SDS011;8734;59.272;17.780;2023-08-24T03:05:56;6.93;;;2.80;;
17235;SDS011;8734;59.272;17.780;2023-08-24T03:08:26;5.63;;;2.93;;
17235;SDS011;8734;59.272;17.780;2023-08-24T03:10:54;6.67;;;2.60;;
17235;SDS011;8734;59.272;17.780;2023-08-24T03:13:23;11.47;;;2.70;;
17235;SDS011;8734;59.272;17.780;2023-08-24T03:15:51;8.07;;;2.80;;
17235;SDS011;8734;59.272;17.780;2023-08-24T03:18:20;9.07;;;2.87;;
17235;SDS011;8734;59.272;17.780;2023-08-24T03:20:50;8.63;;;3.20;;
17235;SDS011;8734;59.272;17.780;2023-08-24T03:23:18;6.13;;;3.10;;
17235;SDS011;8734;59.272;17.780;2023-08-24T03:25:46;8.97;;;2.87;;
17235;SDS011;8734;59.272;17.780;2023-08-24T03:28:14;9.23;;;3.27;;
17235;SDS011;8734;59.272;17.780;2023-08-24T03:30:45;6.50;;;2.83;;
17235;SDS011;8734;59.272;17.780;2023-08-24T03:33:15;9.77;;;2.87;;
17235;SDS011;8734;59.272;17.780;2023-08-24T03:35:43;9.73;;;3.60;;
17235;SDS011;8734;59.272;17.780;2023-08-24T03:38:13;5.30;;;2.80;;
17235;SDS011;8734;59.272;17.780;2023-08-24T03:40:41;3.50;;;2.50;;
17235;SDS011;8734;59.272;17.780;2023-08-24T03:43:10;6.60;;;3.00;;
17235;SDS011;8734;59.272;17.780;2023-08-24T03:45:39;5.50;;;2.70;;
17235;SDS011;8734;59.272;17.780;2023-08-24T03:48:07;12.73;;;2.60;;
17235;SDS011;8734;59.272;17.780;2023-08-24T03:50:35;9.27;;;3.13;;
17235;SDS011;8734;59.272;17.780;2023-08-24T03:53:04;12.37;;;2.80;;
17235;SDS011;8734;59.272;17.780;2023-08-24T03:55:35;8.70;;;2.80;;
17235;SDS011;8734;59.272;17.780;2023-08-24T03:58:04;6.73;;;3.20;;
17235;SDS011;8734;59.272;17.780;2023-08-24T04:00:32;8.80;;;2.90;;
17235;SDS011;8734;59.272;17.780;2023-08-24T04:03:00;7.73;;;2.80;;
17235;SDS011;8734;59.272;17.780;2023-08-24T04:05:29;7.00;;;3.10;;
17235;SDS011;8734;59.272;17.780;2023-08-24T04:07:58;5.87;;;3.60;;
17235;SDS011;8734;59.272;17.780;2023-08-24T04:10:27;8.57;;;3.07;;
17235;SDS011;8734;59.272;17.780;2023-08-24T04:12:58;13.73;;;3.77;;
17235;SDS011;8734;59.272;17.780;2023-08-24T04:15:26;6.43;;;3.27;;
17235;SDS011;8734;59.272;17.780;2023-08-24T04:17:54;7.13;;;3.00;;
17235;SDS011;8734;59.272;17.780;2023-08-24T04:20:23;7.23;;;3.07;;
17235;SDS011;8734;59.272;17.780;2023-08-24T04:22:51;9.83;;;3.07;;
17235;SDS011;8734;59.272;17.780;2023-08-24T04:25:20;7.87;;;3.17;;
17235;SDS011;8734;59.272;17.780;2023-08-24T04:27:48;5.33;;;3.37;;
17235;SDS011;8734;59.272;17.780;2023-08-24T04:30:18;12.33;;;3.23;;
17235;SDS011;8734;59.272;17.780;2023-08-24T04:32:48;7.97;;;3.20;;
17235;SDS011;8734;59.272;17.780;2023-08-24T04:35:17;11.23;;;2.73;;
17235;SDS011;8734;59.272;17.780;2023-08-24T04:37:46;6.53;;;2.57;;
17235;SDS011;8734;59.272;17.780;2023-08-24T04:40:15;7.33;;;3.07;;
17235;SDS011;8734;59.272;17.780;2023-08-24T04:42:44;7.43;;;2.93;;
17235;SDS011;8734;59.272;17.780;2023-08-24T04:45:12;6.17;;;2.50;;
17235;SDS011;8734;59.272;17.780;2023-08-24T04:47:42;11.53;;;3.10;;
17235;SDS011;8734;59.272;17.780;2023-08-24T04:50:10;6.67;;;2.80;;
17235;SDS011;8734;59.272;17.780;2023-08-24T04:52:39;11.17;;;3.60;;
17235;SDS011;8734;59.272;17.780;2023-08-24T04:55:07;8.20;;;2.90;;
17235;SDS011;8734;59.272;17.780;2023-08-24T04:57:36;8.70;;;2.80;;
17235;SDS011;8734;59.272;17.780;2023-08-24T05:00:05;7.87;;;2.53;;
17235;SDS011;8734;59.272;17.780;2023-08-24T05:02:34;12.03;;;2.77;;
17235;SDS011;8734;59.272;17.780;2023-08-24T05:05:04;5.83;;;2.53;;
17235;SDS011;8734;59.272;17.780;2023-08-24T05:07:33;6.87;;;2.67;;
17235;SDS011;8734;59.272;17.780;2023-08-24T05:10:02;9.03;;;3.20;;
17235;SDS011;8734;59.272;17.780;2023-08-24T05:12:30;9.37;;;2.67;;
17235;SDS011;8734;59.272;17.780;2023-08-24T05:15:01;8.57;;;2.57;;
17235;SDS011;8734;59.272;17.780;2023-08-24T05:17:30;9.90;;;3.43;;
17235;SDS011;8734;59.272;17.780;2023-08-24T05:19:59;5.63;;;2.50;;
17235;SDS011;8734;59.272;17.780;2023-08-24T05:22:29;9.80;;;2.77;;
17235;SDS011;8734;59.272;17.780;2023-08-24T05:24:57;14.83;;;3.40;;
17235;SDS011;8734;59.272;17.780;2023-08-24T05:27:25;10.50;;;2.90;;
17235;SDS011;8734;59.272;17.780;2023-08-24T05:29:53;8.37;;;2.87;;
17235;SDS011;8734;59.272;17.780;2023-08-24T05:32:22;11.83;;;3.57;;
17235;SDS011;8734;59.272;17.780;2023-08-24T05:34:50;7.07;;;2.70;;
17235;SDS011;8734;59.272;17.780;2023-08-24T05:37:19;12.80;;;3.27;;
17235;SDS011;8734;59.272;17.780;2023-08-24T05:39:48;8.97;;;3.47;;
17235;SDS011;8734;59.272;17.780;2023-08-24T05:42:17;6.10;;;2.83;;
17235;SDS011;8734;59.272;17.780;2023-08-24T05:44:45;12.83;;;3.10;;
17235;SDS011;8734;59.272;17.780;2023-08-24T05:47:13;10.70;;;3.23;;
17235;SDS011;8734;59.272;17.780;2023-08-24T05:49:42;7.83;;;3.03;;
17235;SDS011;8734;59.272;17.780;2023-08-24T05:52:10;8.67;;;2.80;;
17235;SDS011;8734;59.272;17.780;2023-08-24T05:54:39;8.90;;;3.10;;
17235;SDS011;8734;59.272;17.780;2023-08-24T05:57:08;5.80;;;2.83;;
17235;SDS011;8734;59.272;17.780;2023-08-24T05:59:37;10.27;;;3.83;;
17235;SDS011;8734;59.272;17.780;2023-08-24T06:02:05;13.40;;;3.73;;
17235;SDS011;8734;59.272;17.780;2023-08-24T06:04:33;9.73;;;3.37;;
17235;SDS011;8734;59.272;17.780;2023-08-24T06:07:01;9.63;;;3.10;;
17235;SDS011;8734;59.272;17.780;2023-08-24T06:09:31;8.70;;;2.90;;
17235;SDS011;8734;59.272;17.780;2023-08-24T06:11:59;10.30;;;3.30;;
17235;SDS011;8734;59.272;17.780;2023-08-24T06:14:29;12.47;;;3.23;;
17235;SDS011;8734;59.272;17.780;2023-08-24T06:16:57;6.07;;;2.83;;
17235;SDS011;8734;59.272;17.780;2023-08-24T06:19:25;12.03;;;3.30;;
17235;SDS011;8734;59.272;17.780;2023-08-24T06:21:54;11.30;;;2.63;;
17235;SDS011;8734;59.272;17.780;2023-08-24T06:24:22;6.07;;;2.80;;
17235;SDS011;8734;59.272;17.780;2023-08-24T06:26:50;8.73;;;2.93;;
17235;SDS011;8734;59.272;17.780;2023-08-24T06:29:18;10.27;;;2.60;;
17235;SDS011;8734;59.272;17.780;2023-08-24T06:31:49;10.40;;;3.10;;
17235;SDS011;8734;59.272;17.780;2023-08-24T06:34:17;12.37;;;2.30;;
17235;SDS011;8734;59.272;17.780;2023-08-24T06:36:45;6.57;;;3.10;;
17235;SDS011;8734;59.272;17.780;2023-08-24T06:39:14;5.40;;;2.27;;
17235;SDS011;8734;59.272;17.780;2023-08-24T06:41:42;12.07;;;2.20;;
17235;SDS011;8734;59.272;17.780;2023-08-24T06:44:10;11.90;;;2.33;;
17235;SDS011;8734;59.272;17.780;2023-08-24T06:46:38;13.80;;;2.60;;
17235;SDS011;8734;59.272;17.780;2023-08-24T06:49:09;12.63;;;2.47;;
17235;SDS011;8734;59.272;17.780;2023-08-24T06:51:37;9.47;;;2.60;;
17235;SDS011;8734;59.272;17.780;2023-08-24T06:54:05;6.20;;;2.60;;
17235;SDS011;8734;59.272;17.780;2023-08-24T06:56:33;8.83;;;2.90;;
17235;SDS011;8734;59.272;17.780;2023-08-24T06:59:02;6.97;;;1.97;;
17235;SDS011;8734;59.272;17.780;2023-08-24T07:01:30;9.30;;;2.67;;
17235;SDS011;8734;59.272;17.780;2023-08-24T07:03:58;12.67;;;2.47;;
17235;SDS011;8734;59.272;17.780;2023-08-24T07:06:28;12.90;;;2.37;;
17235;SDS011;8734;59.272;17.780;2023-08-24T07:08:56;11.40;;;1.93;;
17235;SDS011;8734;59.272;17.780;2023-08-24T07:11:25;7.37;;;2.77;;
17235;SDS011;8734;59.272;17.780;2023-08-24T07:13:53;9.03;;;2.70;;
17235;SDS011;8734;59.272;17.780;2023-08-24T07:16:21;9.37;;;2.50;;
17235;SDS011;8734;59.272;17.780;2023-08-24T07:18:49;9.73;;;2.43;;
17235;SDS011;8734;59.272;17.780;2023-08-24T07:21:18;8.30;;;2.27;;
17235;SDS011;8734;59.272;17.780;2023-08-24T07:23:47;12.73;;;2.77;;
17235;SDS011;8734;59.272;17.780;2023-08-24T07:26:15;11.17;;;2.20;;
17235;SDS011;8734;59.272;17.780;2023-08-24T07:28:44;7.77;;;2.43;;
17235;SDS011;8734;59.272;17.780;2023-08-24T07:31:12;6.53;;;2.17;;
17235;SDS011;8734;59.272;17.780;2023-08-24T07:33:42;5.47;;;2.07;;
17235;SDS011;8734;59.272;17.780;2023-08-24T07:36:10;9.23;;;2.67;;
17235;SDS011;8734;59.272;17.780;2023-08-24T07:38:39;16.47;;;2.83;;
17235;SDS011;8734;59.272;17.780;2023-08-24T07:41:08;7.33;;;2.23;;
17235;SDS011;8734;59.272;17.780;2023-08-24T07:43:38;9.30;;;2.37;;
17235;SDS011;8734;59.272;17.780;2023-08-24T07:46:06;5.80;;;2.57;;
17235;SDS011;8734;59.272;17.780;2023-08-24T07:48:35;10.40;;;2.03;;
17235;SDS011;8734;59.272;17.780;2023-08-24T07:51:03;8.37;;;2.33;;
17235;SDS011;8734;59.272;17.780;2023-08-24T07:53:32;6.70;;;2.30;;
17235;SDS011;8734;59.272;17.780;2023-08-24T07:56:00;10.30;;;2.27;;
17235;SDS011;8734;59.272;17.780;2023-08-24T07:58:30;11.13;;;2.30;;
17235;SDS011;8734;59.272;17.780;2023-08-24T08:00:58;8.73;;;2.27;;
17235;SDS011;8734;59.272;17.780;2023-08-24T08:03:27;8.93;;;1.97;;
17235;SDS011;8734;59.272;17.780;2023-08-24T08:05:57;10.33;;;1.93;;
17235;SDS011;8734;59.272;17.780;2023-08-24T08:08:25;9.50;;;2.40;;
17235;SDS011;8734;59.272;17.780;2023-08-24T08:11:00;9.20;;;2.33;;
17235;SDS011;8734;59.272;17.780;2023-08-24T08:13:31;7.67;;;2.20;;
17235;SDS011;8734;59.272;17.780;2023-08-24T08:16:02;10.03;;;2.40;;
17235;SDS011;8734;59.272;17.780;2023-08-24T08:18:32;7.60;;;1.80;;
17235;SDS011;8734;59.272;17.780;2023-08-24T08:21:00;9.47;;;2.07;;
17235;SDS011;8734;59.272;17.780;2023-08-24T08:23:30;6.97;;;1.70;;
17235;SDS011;8734;59.272;17.780;2023-08-24T08:25:58;14.77;;;2.00;;
17235;SDS011;8734;59.272;17.780;2023-08-24T08:28:26;7.40;;;2.30;;
17235;SDS011;8734;59.272;17.780;2023-08-24T08:30:56;15.67;;;2.30;;
17235;SDS011;8734;59.272;17.780;2023-08-24T08:33:24;6.63;;;1.83;;
17235;SDS011;8734;59.272;17.780;2023-08-24T08:35:52;10.43;;;2.23;;
17235;SDS011;8734;59.272;17.780;2023-08-24T08:38:21;7.03;;;1.70;;
17235;SDS011;8734;59.272;17.780;2023-08-24T08:40:53;9.67;;;1.90;;
17235;SDS011;8734;59.272;17.780;2023-08-24T08:43:23;7.67;;;1.97;;
17235;SDS011;8734;59.272;17.780;2023-08-24T08:45:52;12.90;;;2.00;;
17235;SDS011;8734;59.272;17.780;2023-08-24T08:48:25;12.63;;;2.33;;
17235;SDS011;8734;59.272;17.780;2023-08-24T08:50:55;6.07;;;2.10;;
17235;SDS011;8734;59.272;17.780;2023-08-24T08:53:25;6.27;;;2.00;;
17235;SDS011;8734;59.272;17.780;2023-08-24T08:55:54;7.17;;;2.50;;
17235;SDS011;8734;59.272;17.780;2023-08-24T08:58:24;9.37;;;2.70;;
17235;SDS011;8734;59.272;17.780;2023-08-24T09:00:55;8.37;;;1.93;;
17235;SDS011;8734;59.272;17.780;2023-08-24T09:03:26;4.13;;;2.10;;
17235;SDS011;8734;59.272;17.780;2023-08-24T09:05:59;9.23;;;2.10;;
17235;SDS011;8734;59.272;17.780;2023-08-24T09:08:27;8.93;;;2.10;;
17235;SDS011;8734;59.272;17.780;2023-08-24T09:10:58;12.63;;;1.97;;
17235;SDS011;8734;59.272;17.780;2023-08-24T09:13:27;5.20;;;1.90;;
17235;SDS011;8734;59.272;17.780;2023-08-24T09:16:02;11.80;;;2.70;;
17235;SDS011;8734;59.272;17.780;2023-08-24T09:18:36;10.40;;;2.67;;
17235;SDS011;8734;59.272;17.780;2023-08-24T09:21:08;18.97;;;2.20;;
17235;SDS011;8734;59.272;17.780;2023-08-24T09:23:37;6.93;;;2.20;;
17235;SDS011;8734;59.272;17.780;2023-08-24T09:26:10;4.97;;;1.97;;
17235;SDS011;8734;59.272;17.780;2023-08-24T09:28:39;11.33;;;2.30;;
17235;SDS011;8734;59.272;17.780;2023-08-24T09:31:12;7.93;;;1.90;;
17235;SDS011;8734;59.272;17.780;2023-08-24T09:33:42;6.63;;;2.10;;
17235;SDS011;8734;59.272;17.780;2023-08-24T09:36:13;9.80;;;2.13;;
17235;SDS011;8734;59.272;17.780;2023-08-24T09:38:45;13.23;;;3.10;;
17235;SDS011;8734;59.272;17.780;2023-08-24T09:41:16;9.43;;;2.30;;
17235;SDS011;8734;59.272;17.780;2023-08-24T09:43:44;6.97;;;1.87;;
17235;SDS011;8734;59.272;17.780;2023-08-24T09:46:14;8.63;;;2.10;;
17235;SDS011;8734;59.272;17.780;2023-08-24T09:48:53;5.87;;;2.00;;
17235;SDS011;8734;59.272;17.780;2023-08-24T09:51:23;9.47;;;2.20;;
17235;SDS011;8734;59.272;17.780;2023-08-24T09:53:55;5.50;;;1.90;;
17235;SDS011;8734;59.272;17.780;2023-08-24T09:56:27;6.20;;;1.80;;
17235;SDS011;8734;59.272;17.780;2023-08-24T09:58:57;9.20;;;1.77;;
17235;SDS011;8734;59.272;17.780;2023-08-24T10:01:32;12.10;;;2.20;;
17235;SDS011;8734;59.272;17.780;2023-08-24T10:04:02;5.97;;;1.80;;
17235;SDS011;8734;59.272;17.780;2023-08-24T10:06:33;7.43;;;1.70;;
17235;SDS011;8734;59.272;17.780;2023-08-24T10:09:06;8.33;;;1.80;;
17235;SDS011;8734;59.272;17.780;2023-08-24T10:11:37;5.70;;;1.70;;
17235;SDS011;8734;59.272;17.780;2023-08-24T10:14:12;6.03;;;1.70;;
17235;SDS011;8734;59.272;17.780;2023-08-24T10:16:48;7.83;;;1.60;;
17235;SDS011;8734;59.272;17.780;2023-08-24T10:19:16;5.80;;;1.97;;
17235;SDS011;8734;59.272;17.780;2023-08-24T10:21:45;11.27;;;1.90;;
17235;SDS011;8734;59.272;17.780;2023-08-24T10:24:15;8.23;;;1.77;;
17235;SDS011;8734;59.272;17.780;2023-08-24T10:26:44;9.37;;;1.60;;
17235;SDS011;8734;59.272;17.780;2023-08-24T10:29:12;4.47;;;1.40;;
17235;SDS011;8734;59.272;17.780;2023-08-24T10:31:41;5.05;;;1.50;;
17235;SDS011;8734;59.272;17.780;2023-08-24T10:34:11;9.57;;;1.95;;
17235;SDS011;8734;59.272;17.780;2023-08-24T10:36:40;7.55;;;1.67;;
17235;SDS011;8734;59.272;17.780;2023-08-24T10:39:08;5.18;;;1.40;;
17235;SDS011;8734;59.272;17.780;2023-08-24T10:41:46;5.68;;;1.40;;
17235;SDS011;8734;59.272;17.780;2023-08-24T10:44:21;4.82;;;1.40;;
17235;SDS011;8734;59.272;17.780;2023-08-24T10:49:44;9.10;;;1.30;;
17235;SDS011;8734;59.272;17.780;2023-08-24T10:52:16;6.28;;;1.20;;
17235;SDS011;8734;59.272;17.780;2023-08-24T10:54:46;3.72;;;1.20;;
17235;SDS011;8734;59.272;17.780;2023-08-24T10:57:18;5.93;;;1.83;;
17235;SDS011;8734;59.272;17.780;2023-08-24T10:59:57;3.13;;;1.00;;
17235;SDS011;8734;59.272;17.780;2023-08-24T11:02:26;3.75;;;1.00;;
17235;SDS011;8734;59.272;17.780;2023-08-24T11:05:06;5.72;;;1.30;;
17235;SDS011;8734;59.272;17.780;2023-08-24T11:07:35;6.47;;;1.30;;
17235;SDS011;8734;59.272;17.780;2023-08-24T11:10:17;4.78;;;1.27;;
17235;SDS011;8734;59.272;17.780;2023-08-24T11:13:04;3.50;;;1.45;;
17235;SDS011;8734;59.272;17.780;2023-08-24T11:15:39;3.20;;;1.40;;
17235;SDS011;8734;59.272;17.780;2023-08-24T11:18:12;3.17;;;1.10;;
17235;SDS011;8734;59.272;17.780;2023-08-24T11:20:44;5.25;;;1.27;;
17235;SDS011;8734;59.272;17.780;2023-08-24T11:23:12;5.65;;;1.40;;
17235;SDS011;8734;59.272;17.780;2023-08-24T11:25:42;1.92;;;0.90;;
17235;SDS011;8734;59.272;17.780;2023-08-24T11:28:16;3.35;;;1.10;;
17235;SDS011;8734;59.272;17.780;2023-08-24T11:30:46;2.92;;;0.85;;
17235;SDS011;8734;59.272;17.780;2023-08-24T11:33:14;11.77;;;1.55;;
17235;SDS011;8734;59.272;17.780;2023-08-24T11:35:45;7.18;;;1.10;;
17235;SDS011;8734;59.272;17.780;2023-08-24T11:38:14;7.70;;;1.23;;
17235;SDS011;8734;59.272;17.780;2023-08-24T11:40:42;4.80;;;0.98;;
17235;SDS011;8734;59.272;17.780;2023-08-24T11:43:10;3.30;;;0.90;;
17235;SDS011;8734;59.272;17.780;2023-08-24T11:45:39;3.03;;;1.10;;
17235;SDS011;8734;59.272;17.780;2023-08-24T11:48:08;4.15;;;1.20;;
17235;SDS011;8734;59.272;17.780;2023-08-24T11:50:37;7.80;;;1.23;;
17235;SDS011;8734;59.272;17.780;2023-08-24T11:53:07;6.15;;;1.45;;
17235;SDS011;8734;59.272;17.780;2023-08-24T11:55:39;3.78;;;1.00;;
17235;SDS011;8734;59.272;17.780;2023-08-24T11:58:25;8.07;;;1.05;;
17235;SDS011;8734;59.272;17.780;2023-08-24T12:00:53;2.38;;;0.98;;
17235;SDS011;8734;59.272;17.780;2023-08-24T12:03:22;5.47;;;1.05;;
17235;SDS011;8734;59.272;17.780;2023-08-24T12:05:51;4.30;;;0.82;;
17235;SDS011;8734;59.272;17.780;2023-08-24T12:08:20;2.08;;;0.95;;
17235;SDS011;8734;59.272;17.780;2023-08-24T12:10:49;1.67;;;0.70;;
17235;SDS011;8734;59.272;17.780;2023-08-24T12:13:17;8.40;;;1.20;;
17235;SDS011;8734;59.272;17.780;2023-08-24T12:15:46;1.70;;;0.88;;
17235;SDS011;8734;59.272;17.780;2023-08-24T12:18:17;1.42;;;0.93;;
17235;SDS011;8734;59.272;17.780;2023-08-24T12:20:45;4.28;;;1.10;;
17235;SDS011;8734;59.272;17.780;2023-08-24T12:23:15;10.35;;;1.23;;
17235;SDS011;8734;59.272;17.780;2023-08-24T12:25:44;4.88;;;1.10;;
17235;SDS011;8734;59.272;17.780;2023-08-24T12:28:13;6.78;;;1.20;;
17235;SDS011;8734;59.272;17.780;2023-08-24T12:30:43;3.70;;;1.23;;
17235;SDS011;8734;59.272;17.780;2023-08-24T12:33:21;3.45;;;1.05;;
17235;SDS011;8734;59.272;17.780;2023-08-24T12:35:50;4.90;;;1.17;;
17235;SDS011;8734;59.272;17.780;2023-08-24T12:38:18;4.35;;;0.90;;
17235;SDS011;8734;59.272;17.780;2023-08-24T12:40:48;5.18;;;0.93;;
17235;SDS011;8734;59.272;17.780;2023-08-24T12:43:17;6.25;;;0.95;;
17235;SDS011;8734;59.272;17.780;2023-08-24T12:45:45;4.80;;;1.00;;
17235;SDS011;8734;59.272;17.780;2023-08-24T12:48:13;3.42;;;0.90;;
17235;SDS011;8734;59.272;17.780;2023-08-24T12:50:42;3.92;;;1.02;;
17235;SDS011;8734;59.272;17.780;2023-08-24T12:53:11;4.68;;;0.80;;
17235;SDS011;8734;59.272;17.780;2023-08-24T12:55:39;6.50;;;1.30;;
17235;SDS011;8734;59.272;17.780;2023-08-24T12:58:09;3.90;;;1.17;;
17235;SDS011;8734;59.272;17.780;2023-08-24T13:00:37;4.85;;;1.20;;
17235;SDS011;8734;59.272;17.780;2023-08-24T13:03:05;2.70;;;1.00;;
17235;SDS011;8734;59.272;17.780;2023-08-24T13:05:34;8.23;;;1.20;;
17235;SDS011;8734;59.272;17.780;2023-08-24T13:08:03;4.72;;;1.13;;
17235;SDS011;8734;59.272;17.780;2023-08-24T13:10:32;5.35;;;1.23;;
17235;SDS011;8734;59.272;17.780;2023-08-24T13:13:01;5.20;;;1.15;;
17235;SDS011;8734;59.272;17.780;2023-08-24T13:15:31;3.17;;;1.25;;
17235;SDS011;8734;59.272;17.780;2023-08-24T13:17:59;2.67;;;0.82;;
17235;SDS011;8734;59.272;17.780;2023-08-24T13:20:28;3.20;;;1.20;;
17235;SDS011;8734;59.272;17.780;2023-08-24T13:22:56;3.65;;;1.23;;
17235;SDS011;8734;59.272;17.780;2023-08-24T13:25:25;3.45;;;1.10;;
17235;SDS011;8734;59.272;17.780;2023-08-24T13:27:53;5.50;;;1.38;;
17235;SDS011;8734;59.272;17.780;2023-08-24T13:30:22;4.95;;;1.25;;
17235;SDS011;8734;59.272;17.780;2023-08-24T13:32:52;5.43;;;1.43;;
17235;SDS011;8734;59.272;17.780;2023-08-24T13:35:21;5.63;;;1.30;;
17235;SDS011;8734;59.272;17.780;2023-08-24T13:37:49;2.80;;;1.07;;
17235;SDS011;8734;59.272;17.780;2023-08-24T13:40:17;3.97;;;1.20;;
17235;SDS011;8734;59.272;17.780;2023-08-24T13:42:46;5.13;;;1.13;;
17235;SDS011;8734;59.272;17.780;2023-08-24T13:45:14;4.73;;;1.30;;
17235;SDS011;8734;59.272;17.780;2023-08-24T13:47:43;5.57;;;1.10;;
17235;SDS011;8734;59.272;17.780;2023-08-24T13:50:13;5.90;;;1.30;;
17235;SDS011;8734;59.272;17.780;2023-08-24T13:52:41;3.27;;;1.67;;
17235;SDS011;8734;59.272;17.780;2023-08-24T13:55:10;6.05;;;1.42;;
17235;SDS011;8734;59.272;17.780;2023-08-24T13:57:39;3.63;;;1.10;;
17235;SDS011;8734;59.272;17.780;2023-08-24T14:00:08;4.63;;;1.40;;
17235;SDS011;8734;59.272;17.780;2023-08-24T14:02:38;3.40;;;1.10;;
17235;SDS011;8734;59.272;17.780;2023-08-24T14:05:07;20.00;;;1.67;;
17235;SDS011;8734;59.272;17.780;2023-08-24T14:07:38;4.50;;;1.13;;
17235;SDS011;8734;59.272;17.780;2023-08-24T14:10:07;4.40;;;0.93;;
17235;SDS011;8734;59.272;17.780;2023-08-24T14:12:36;3.50;;;1.30;;
17235;SDS011;8734;59.272;17.780;2023-08-24T14:15:04;5.63;;;1.23;;
17235;SDS011;8734;59.272;17.780;2023-08-24T14:17:33;3.97;;;1.23;;
17235;SDS011;8734;59.272;17.780;2023-08-24T14:20:02;9.67;;;1.57;;
17235;SDS011;8734;59.272;17.780;2023-08-24T14:22:32;10.07;;;1.17;;
17235;SDS011;8734;59.272;17.780;2023-08-24T14:25:01;5.97;;;1.33;;
17235;SDS011;8734;59.272;17.780;2023-08-24T14:27:30;5.87;;;1.07;;
17235;SDS011;8734;59.272;17.780;2023-08-24T14:29:58;4.87;;;1.67;;
17235;SDS011;8734;59.272;17.780;2023-08-24T14:32:26;7.17;;;1.20;;
17235;SDS011;8734;59.272;17.780;2023-08-24T14:34:55;1.98;;;1.08;;
17235;SDS011;8734;59.272;17.780;2023-08-24T14:37:23;2.78;;;0.90;;
17235;SDS011;8734;59.272;17.780;2023-08-24T14:39:52;5.70;;;1.10;;
17235;SDS011;8734;59.272;17.780;2023-08-24T14:42:21;6.75;;;1.80;;
17235;SDS011;8734;59.272;17.780;2023-08-24T14:44:50;3.97;;;1.25;;
17235;SDS011;8734;59.272;17.780;2023-08-24T14:47:18;1.65;;;0.85;;
17235;SDS011;8734;59.272;17.780;2023-08-24T14:49:47;5.88;;;0.93;;
17235;SDS011;8734;59.272;17.780;2023-08-24T14:52:15;2.67;;;0.93;;
17235;SDS011;8734;59.272;17.780;2023-08-24T14:54:43;2.58;;;1.00;;
17235;SDS011;8734;59.272;17.780;2023-08-24T14:57:12;5.50;;;0.93;;
17235;SDS011;8734;59.272;17.780;2023-08-24T14:59:41;4.60;;;1.33;;
17235;SDS011;8734;59.272;17.780;2023-08-24T15:02:10;7.20;;;0.93;;